Time;durP1;ratioP1;P1;durP2;ratioP2;P2;SDS_P1;SDS_P2;PMS_P1;PMS_P2;Temp;Humidity;BMP_temperature;BMP_pressure;BME280_temperature;BME280_humidity;BME280_pressure;Samples;Min_cycle;Max_cycle;Signal;HPM_P1;HPM_P2
2022/08/13 00:00:33;;;;;;;3.95;2.20;;;24.00;73.50;;;;;;5086996;28;20200;-79
2022/08/13 00:03:20;;;;;;;4.78;2.58;;;23.90;73.30;;;;;;5067402;28;20111;-78
2022/08/13 00:06:02;;;;;;;15.82;3.17;;;23.90;73.20;;;;;;5086844;27;20041;-79
2022/08/13 00:08:35;;;;;;;;;;;23.90;73.20;;;;;;5070827;28;20525;-78
2022/08/13 00:11:11;;;;;;;4.63;2.67;;;23.90;73.20;;;;;;5087022;27;19927;-79
2022/08/13 00:13:50;;;;;;;6.25;2.95;;;24.00;73.50;;;;;;5086507;27;20067;-79
2022/08/13 00:16:44;;;;;;;4.28;2.63;;;23.80;73.60;;;;;;5082574;27;20714;-78
2022/08/13 00:19:10;;;;;;;4.63;2.72;;;24.00;73.90;;;;;;5074194;28;20079;-79
2022/08/13 00:21:35;;;;;;;5.22;2.67;;;23.80;73.70;;;;;;5085994;28;20054;-79
2022/08/13 00:24:02;;;;;;;4.13;2.53;;;23.80;73.80;;;;;;5085875;28;20119;-79
2022/08/13 00:26:28;;;;;;;5.15;2.97;;;23.80;73.80;;;;;;5083070;28;20040;-78
2022/08/13 00:28:54;;;;;;;3.80;2.42;;;23.70;73.70;;;;;;5080516;27;20181;-78
2022/08/13 00:31:24;;;;;;;4.07;2.72;;;23.70;73.90;;;;;;5071973;28;21455;-78
2022/08/13 00:33:51;;;;;;;3.42;2.65;;;23.60;73.80;;;;;;5066474;28;20036;-78
2022/08/13 00:36:18;;;;;;;7.57;3.20;;;23.70;73.90;;;;;;5063094;28;20037;-79
2022/08/13 00:38:46;;;;;;;6.45;2.97;;;23.60;73.90;;;;;;5065071;28;20044;-79
2022/08/13 00:41:37;;;;;;;4.90;2.85;;;23.60;73.90;;;;;;5064097;28;20071;-78
2022/08/13 00:43:58;;;;;;;5.43;2.88;;;23.50;73.80;;;;;;5065700;28;20222;-78
2022/08/13 00:46:24;;;;;;;5.32;2.88;;;23.60;74.00;;;;;;5070306;28;20123;-78
2022/08/13 00:48:52;;;;;;;4.35;2.47;;;23.50;74.10;;;;;;5071902;28;20150;-78
2022/08/13 00:51:22;;;;;;;3.40;2.25;;;23.50;74.30;;;;;;5063761;28;20140;-78
2022/08/13 00:53:49;;;;;;;3.65;2.45;;;23.50;74.30;;;;;;5063886;28;20294;-79
2022/08/13 00:56:17;;;;;;;4.93;2.55;;;23.40;74.40;;;;;;5063173;28;20582;-79
2022/08/13 00:58:43;;;;;;;4.82;3.00;;;23.40;74.40;;;;;;5070677;28;20052;-79
2022/08/13 01:01:11;;;;;;;5.85;3.03;;;23.40;74.60;;;;;;5066012;28;20110;-79
2022/08/13 01:03:38;;;;;;;4.60;2.35;;;23.40;74.60;;;;;;5064277;28;20084;-79
2022/08/13 01:06:06;;;;;;;6.57;2.67;;;23.30;74.60;;;;;;5062770;28;20075;-79
2022/08/13 01:08:40;;;;;;;4.05;2.58;;;23.50;74.80;;;;;;5064269;28;20033;-79
2022/08/13 01:11:13;;;;;;;3.10;2.30;;;23.30;74.70;;;;;;5064145;28;20690;-79
2022/08/13 01:13:42;;;;;;;4.15;2.10;;;23.30;74.80;;;;;;5064047;28;20545;-79
2022/08/13 01:16:14;;;;;;;5.15;3.08;;;23.20;74.90;;;;;;5064237;28;20103;-79
2022/08/13 01:18:42;;;;;;;6.70;2.80;;;23.30;75.10;;;;;;5078683;28;20511;-79
2022/08/13 01:21:17;;;;;;;6.93;3.40;;;23.30;75.10;;;;;;5064177;28;20045;-79
2022/08/13 01:23:46;;;;;;;6.68;2.28;;;23.20;75.00;;;;;;5061887;28;20068;-79
2022/08/13 01:26:17;;;;;;;2.75;1.85;;;23.10;74.80;;;;;;5062787;28;20179;-79
2022/08/13 01:28:45;;;;;;;6.63;2.47;;;23.10;74.70;;;;;;5064399;28;20083;-78
2022/08/13 01:31:14;;;;;;;4.35;2.75;;;23.10;74.70;;;;;;5063204;28;20537;-79
2022/08/13 01:33:43;;;;;;;4.25;2.45;;;23.00;74.60;;;;;;5064920;28;20052;-78
2022/08/13 01:36:10;;;;;;;2.92;2.30;;;22.80;74.50;;;;;;5061699;28;20741;-78
2022/08/13 01:38:37;;;;;;;4.05;2.50;;;23.00;74.80;;;;;;5063089;28;20041;-79
2022/08/13 01:41:04;;;;;;;5.45;2.50;;;23.00;74.90;;;;;;5064377;28;20045;-79
2022/08/13 01:43:31;;;;;;;4.05;2.35;;;23.00;75.10;;;;;;5064444;28;20068;-79
2022/08/13 01:46:01;;;;;;;3.63;2.92;;;23.00;75.20;;;;;;5069894;28;20045;-79
2022/08/13 01:51:28;;;;;;;5.25;2.38;;;22.80;75.40;;;;;;5080758;28;20056;-83
2022/08/13 01:54:09;;;;;;;7.68;3.22;;;22.90;75.60;;;;;;5080019;28;20167;-83
2022/08/13 01:56:38;;;;;;;4.65;2.33;;;22.90;75.60;;;;;;5064929;28;20051;-82
2022/08/13 01:59:09;;;;;;;5.20;2.30;;;22.80;75.60;;;;;;5051526;28;20491;-82
2022/08/13 02:01:42;;;;;;;5.43;3.00;;;22.90;75.70;;;;;;5074272;28;21012;-82
2022/08/13 02:04:22;;;;;;;2.75;2.03;;;22.70;75.70;;;;;;5083918;28;20163;-83
2022/08/13 02:07:19;;;;;;;4.35;2.65;;;22.80;75.90;;;;;;5050039;28;20045;-83
2022/08/13 02:09:56;;;;;;;6.65;2.63;;;22.90;76.60;;;;;;5077054;28;20045;-82
2022/08/13 02:13:04;;;;;;;3.20;2.42;;;22.70;75.80;;;;;;5049702;28;20119;-82
2022/08/13 02:15:35;;;;;;;4.07;2.35;;;22.60;75.80;;;;;;5048470;28;20928;-82
2022/08/13 02:18:25;;;;;;;3.38;2.33;;;22.70;75.80;;;;;;5048015;28;20151;-82
2022/08/13 02:21:22;;;;;;;6.05;2.35;;;22.60;75.70;;;;;;5050122;28;20094;-81
2022/08/13 02:24:04;;;;;;;3.83;2.58;;;22.50;75.90;;;;;;5065156;28;20462;-82
2022/08/13 02:26:51;;;;;;;7.10;2.60;;;22.60;75.90;;;;;;5064105;28;20098;-81
2022/08/13 02:29:45;;;;;;;3.85;2.40;;;22.30;75.70;;;;;;5049014;28;30639;-82
2022/08/13 02:35:13;;;;;;;4.15;2.95;;;22.50;75.70;;;;;;5015560;28;20539;-82
2022/08/13 02:37:48;;;;;;;4.68;2.47;;;22.40;75.70;;;;;;5044903;28;20075;-83
2022/08/13 02:43:19;;;;;;;3.28;2.45;;;22.40;75.80;;;;;;5015744;28;20039;-82
2022/08/13 02:46:03;;;;;;;;;;;;;;;;;;;;;
2022/08/13 02:48:40;;;;;;;5.38;2.63;;;22.40;75.90;;;;;;5013992;28;42987;-83
2022/08/13 02:51:12;;;;;;;5.43;2.67;;;22.60;75.90;;;;;;5030904;28;20045;-83
2022/08/13 02:53:44;;;;;;;;;;;22.30;75.80;;;;;;5013453;28;20808;-83
2022/08/13 02:56:13;;;;;;;;;;;22.20;75.70;;;;;;5015267;28;19928;-83
2022/08/13 02:58:52;;;;;;;4.78;2.28;;;22.20;75.80;;;;;;5010921;28;20319;-83
2022/08/13 03:01:25;;;;;;;3.17;2.10;;;22.20;75.80;;;;;;5014583;28;20042;-83
2022/08/13 03:04:00;;;;;;;3.50;2.40;;;22.10;75.70;;;;;;5015974;28;20050;-83
2022/08/13 03:06:31;;;;;;;4.97;2.30;;;22.10;75.60;;;;;;5016400;28;20057;-82
2022/08/13 03:09:09;;;;;;;4.40;2.97;;;22.10;75.80;;;;;;5023316;28;20042;-83
2022/08/13 03:11:55;;;;;;;4.20;2.97;;;22.00;75.70;;;;;;5023435;28;20069;-83
2022/08/13 03:14:27;;;;;;;2.90;2.22;;;22.10;75.80;;;;;;5012717;28;20424;-83
2022/08/13 03:17:05;;;;;;;3.85;2.65;;;22.10;75.90;;;;;;5015389;28;20054;-83
2022/08/13 03:19:43;;;;;;;4.07;2.42;;;22.00;76.00;;;;;;5015588;28;20112;-83
2022/08/13 03:22:13;;;;;;;4.40;2.13;;;21.90;76.00;;;;;;5029586;28;20057;-82
2022/08/13 03:24:47;;;;;;;3.45;2.30;;;22.00;76.10;;;;;;5013686;28;20034;-83
2022/08/13 03:27:31;;;;;;;5.20;2.60;;;21.90;76.20;;;;;;5011356;28;20180;-82
2022/08/13 03:30:00;;;;;;;4.72;2.28;;;21.80;76.30;;;;;;5033158;28;20041;-83
2022/08/13 03:32:52;;;;;;;6.32;2.42;;;22.00;76.40;;;;;;5039200;28;20103;-82
2022/08/13 03:35:35;;;;;;;3.90;2.40;;;21.90;76.40;;;;;;5037689;28;20044;-83
2022/08/13 03:38:14;;;;;;;5.50;3.40;;;21.80;77.10;;;;;;5031929;28;20048;-82
2022/08/13 03:41:09;;;;;;;6.35;3.60;;;21.80;76.50;;;;;;5051344;28;20037;-84
2022/08/13 03:44:05;;;;;;;4.07;2.50;;;22.00;76.60;;;;;;5029386;28;20862;-83
2022/08/13 03:46:41;;;;;;;3.50;2.25;;;21.80;76.50;;;;;;5049081;28;20049;-83
2022/08/13 03:49:16;;;;;;;5.97;2.42;;;21.70;76.60;;;;;;5038663;28;20045;-83
2022/08/13 03:51:45;;;;;;;3.20;2.20;;;21.70;76.60;;;;;;5031823;28;20053;-83
2022/08/13 03:54:41;;;;;;;4.90;3.13;;;21.70;76.70;;;;;;5038496;28;20052;-83
2022/08/13 03:57:08;;;;;;;5.80;2.85;;;21.70;76.70;;;;;;5036539;28;20712;-82
2022/08/13 03:59:44;;;;;;;4.32;2.83;;;21.70;76.80;;;;;;5037964;28;20047;-83
2022/08/13 04:02:20;;;;;;;5.32;2.33;;;21.70;76.70;;;;;;5031920;28;20037;-83
2022/08/13 04:04:53;;;;;;;12.50;2.88;;;21.60;76.90;;;;;;5050212;28;20415;-82
2022/08/13 04:07:30;;;;;;;8.38;3.03;;;21.70;77.00;;;;;;5049691;28;20661;-83
2022/08/13 04:10:11;;;;;;;3.75;2.38;;;21.60;76.80;;;;;;5049712;28;20045;-83
2022/08/13 04:12:43;;;;;;;4.85;3.00;;;21.60;76.90;;;;;;5050702;28;20069;-83
2022/08/13 04:15:22;;;;;;;5.10;2.85;;;21.50;76.90;;;;;;5050991;28;20056;-82
2022/08/13 04:18:12;;;;;;;5.47;2.45;;;21.50;77.00;;;;;;5031091;28;20046;-83
2022/08/13 04:20:54;;;;;;;6.75;2.58;;;21.50;76.90;;;;;;5049598;28;20136;-83
2022/08/13 04:23:41;;;;;;;6.07;2.70;;;21.50;77.00;;;;;;5062432;28;20049;-82
2022/08/13 04:26:23;;;;;;;5.75;2.60;;;21.50;77.00;;;;;;5031705;28;20055;-83
2022/08/13 04:28:54;;;;;;;4.30;3.58;;;21.20;76.80;;;;;;5038280;28;20055;-82
2022/08/13 04:31:38;;;;;;;7.35;3.53;;;21.20;76.90;;;;;;5049762;28;20047;-82
2022/08/13 04:34:09;;;;;;;5.20;2.47;;;21.50;77.10;;;;;;5050364;28;20087;-82
2022/08/13 04:36:37;;;;;;;4.07;2.58;;;21.50;77.20;;;;;;5037336;28;20033;-82
2022/08/13 04:39:27;;;;;;;4.35;2.60;;;20.80;76.80;;;;;;5047342;28;20052;-82
2022/08/13 04:41:56;;;;;;;4.60;2.55;;;21.40;77.20;;;;;;5032173;28;20040;-81
2022/08/13 04:44:31;;;;;;;4.10;2.55;;;21.40;77.20;;;;;;5032767;28;20065;-83
2022/08/13 04:47:04;;;;;;;5.10;2.83;;;21.40;77.40;;;;;;5037959;28;20574;-82
2022/08/13 04:49:36;;;;;;;4.32;2.55;;;21.40;77.30;;;;;;5048836;28;20499;-83
2022/08/13 04:52:05;;;;;;;7.97;2.35;;;21.30;77.30;;;;;;5049729;28;20076;-83
2022/08/13 04:54:42;;;;;;;9.07;2.72;;;21.30;77.30;;;;;;5049768;28;20616;-83
2022/08/13 04:57:14;;;;;;;4.82;2.58;;;20.70;76.90;;;;;;5038298;28;20144;-82
2022/08/13 04:59:51;;;;;;;3.67;2.35;;;21.20;77.10;;;;;;5050153;28;20047;-82
2022/08/13 05:02:25;;;;;;;3.83;2.42;;;21.30;77.20;;;;;;5038031;28;20143;-83
2022/08/13 05:04:52;;;;;;;8.80;3.65;;;21.20;77.30;;;;;;5050896;28;20045;-83
2022/08/13 05:07:18;;;;;;;4.93;2.95;;;21.20;77.10;;;;;;5039185;28;20523;-82
2022/08/13 05:09:49;;;;;;;4.55;2.47;;;21.20;77.20;;;;;;5034520;28;21020;-83
2022/08/13 05:12:35;;;;;;;6.95;3.20;;;21.20;77.30;;;;;;5043327;28;20052;-82
2022/08/13 05:15:09;;;;;;;5.20;2.90;;;21.30;77.30;;;;;;5056049;28;20050;-83
2022/08/13 05:17:45;;;;;;;3.90;2.50;;;21.30;77.40;;;;;;5037945;28;20042;-82
2022/08/13 05:20:13;;;;;;;5.68;2.65;;;21.20;77.30;;;;;;5057819;28;20103;-83
2022/08/13 05:22:42;;;;;;;7.00;2.53;;;21.20;77.40;;;;;;5056787;28;20116;-82
2022/08/13 05:25:14;;;;;;;6.88;2.90;;;21.20;77.40;;;;;;5055875;28;20144;-82
2022/08/13 05:27:53;;;;;;;8.60;3.13;;;21.20;77.30;;;;;;5040933;28;20476;-83
2022/08/13 05:30:25;;;;;;;4.93;2.40;;;21.20;77.30;;;;;;5057249;28;20052;-83
2022/08/13 05:32:57;;;;;;;4.30;2.50;;;21.10;77.40;;;;;;5068498;28;20805;-82
2022/08/13 05:35:34;;;;;;;4.18;2.13;;;21.10;77.40;;;;;;5035270;28;20042;-82
2022/08/13 05:38:02;;;;;;;6.40;2.10;;;21.30;77.60;;;;;;5054000;28;20191;-82
2022/08/13 05:40:35;;;;;;;5.30;2.30;;;21.10;77.40;;;;;;5040120;28;20587;-82
2022/08/13 05:43:10;;;;;;;4.28;2.90;;;21.30;77.60;;;;;;5057911;28;20053;-82
2022/08/13 05:46:07;;;;;;;4.15;2.30;;;21.10;77.40;;;;;;5034834;28;20859;-82
2022/08/13 05:48:42;;;;;;;6.05;2.33;;;21.10;77.40;;;;;;5046048;28;20045;-82
2022/08/13 05:51:28;;;;;;;4.75;2.78;;;21.30;77.60;;;;;;5032250;28;20549;-83
2022/08/13 05:53:59;;;;;;;4.45;2.58;;;21.00;77.60;;;;;;5048263;28;20124;-82
2022/08/13 05:56:38;;;;;;;3.97;2.73;;;21.00;77.60;;;;;;5036486;28;20055;-81
2022/08/13 06:04:52;;;;;;;4.90;2.60;;;21.10;77.80;;;;;;5048877;28;20579;-82
2022/08/13 06:07:28;;;;;;;3.30;2.05;;;21.10;77.90;;;;;;5031167;28;20061;-83
2022/08/13 06:10:06;;;;;;;4.13;2.42;;;21.10;77.90;;;;;;5031128;28;20055;-84
2022/08/13 06:12:42;;;;;;;4.90;2.13;;;21.40;78.10;;;;;;5036484;28;20041;-83
2022/08/13 06:15:33;;;;;;;;;;;;;;;;;;;;;
2022/08/13 06:18:41;;;;;;;3.15;2.10;;;21.20;78.00;;;;;;5046447;28;42482;-84
2022/08/13 06:21:42;;;;;;;3.88;2.50;;;21.20;78.10;;;;;;5047871;28;20060;-84
2022/08/13 06:28:16;;;;;;;5.32;2.05;;;21.30;78.30;;;;;;5045350;28;20045;-79
2022/08/13 06:30:52;;;;;;;3.28;2.17;;;21.30;78.40;;;;;;5061313;28;20064;-78
2022/08/13 06:33:39;;;;;;;4.15;2.30;;;21.30;78.30;;;;;;5046533;28;20037;-79
2022/08/13 06:36:30;;;;;;;4.25;2.90;;;21.30;78.60;;;;;;5035618;28;20123;-79
2022/08/13 06:39:25;;;;;;;6.97;2.95;;;21.70;78.80;;;;;;5043033;28;20044;-78
2022/08/13 06:42:13;;;;;;;4.55;2.20;;;21.30;78.70;;;;;;5032059;28;20065;-80
2022/08/13 06:44:59;;;;;;;2.95;2.40;;;21.30;78.70;;;;;;5043749;28;20056;-79
2022/08/13 06:50:44;;;;;;;4.18;1.90;;;21.40;78.70;;;;;;5043809;28;20069;-78
2022/08/13 06:53:19;;;;;;;3.55;2.28;;;21.40;78.90;;;;;;5028199;28;20057;-78
2022/08/13 06:55:55;;;;;;;3.95;2.30;;;21.60;78.90;;;;;;5032851;28;20554;-78
2022/08/13 06:58:30;;;;;;;3.67;2.15;;;21.70;79.10;;;;;;5025876;28;20100;-78
2022/08/13 07:01:08;;;;;;;4.13;2.33;;;21.70;79.00;;;;;;5029371;28;20056;-77
2022/08/13 07:03:40;;;;;;;3.20;1.98;;;21.50;78.90;;;;;;5047915;28;20118;-77
2022/08/13 07:06:15;;;;;;;;;;;21.50;79.00;;;;;;5051535;28;20195;-76
2022/08/13 07:09:01;;;;;;;3.55;2.10;;;21.60;78.90;;;;;;5050089;28;19994;-76
2022/08/13 07:11:34;;;;;;;5.57;1.77;;;21.60;78.90;;;;;;5053995;28;20071;-77
2022/08/13 07:14:10;;;;;;;4.60;2.03;;;21.60;78.90;;;;;;5055015;28;20578;-76
2022/08/13 07:16:44;;;;;;;3.50;2.00;;;21.60;79.00;;;;;;5031143;28;20115;-77
2022/08/13 07:19:15;;;;;;;4.18;2.13;;;21.70;79.10;;;;;;5035300;28;20045;-77
2022/08/13 07:21:51;;;;;;;3.58;1.70;;;21.70;79.10;;;;;;5031427;28;20592;-78
2022/08/13 07:24:45;;;;;;;3.55;1.85;;;21.70;79.20;;;;;;5037957;28;20055;-83
2022/08/13 07:27:15;;;;;;;3.30;2.22;;;21.80;79.40;;;;;;5051540;28;20041;-76
2022/08/13 07:29:53;;;;;;;3.05;1.85;;;21.80;79.40;;;;;;5030254;28;20061;-77
2022/08/13 07:32:25;;;;;;;5.03;2.05;;;21.80;79.20;;;;;;5034547;28;20053;-77
2022/08/13 07:35:02;;;;;;;3.75;1.75;;;21.90;79.30;;;;;;5049145;28;20046;-83
2022/08/13 07:37:45;;;;;;;4.00;2.03;;;21.90;79.10;;;;;;5053369;28;20046;-77
2022/08/13 07:40:21;;;;;;;6.55;2.00;;;22.00;79.10;;;;;;5029944;28;20100;-86
2022/08/13 07:42:58;;;;;;;3.78;1.73;;;22.00;78.90;;;;;;5030528;28;20513;-77
2022/08/13 07:45:30;;;;;;;5.13;2.03;;;22.10;78.80;;;;;;5048257;28;20045;-77
2022/08/13 07:48:12;;;;;;;3.53;1.75;;;22.10;79.00;;;;;;5047661;28;20050;-77
2022/08/13 07:50:56;;;;;;;11.75;2.13;;;22.10;78.70;;;;;;5034105;28;20594;-78
2022/08/13 07:53:30;;;;;;;3.15;2.03;;;22.20;78.70;;;;;;5035570;28;20045;-77
2022/08/13 07:56:47;;;;;;;3.58;1.65;;;22.20;78.60;;;;;;5030285;28;20039;-79
2022/08/13 07:59:46;;;;;;;;;;;;;;;;;;;;;
2022/08/13 08:02:28;;;;;;;3.53;2.28;;;22.30;78.50;;;;;;5045663;28;40108;-78
2022/08/13 08:05:31;;;;;;;3.50;2.20;;;22.40;78.40;;;;;;5034167;28;20107;-78
2022/08/13 08:08:13;;;;;;;3.35;1.73;;;22.40;78.30;;;;;;5048421;28;20042;-79
2022/08/13 08:10:40;;;;;;;3.08;2.00;;;22.60;78.30;;;;;;5051127;28;20047;-78
2022/08/13 08:13:10;;;;;;;4.75;1.73;;;22.40;78.00;;;;;;5052673;28;20079;-78
2022/08/13 08:15:39;;;;;;;3.00;1.63;;;22.50;77.80;;;;;;5029325;28;20127;-78
2022/08/13 08:18:05;;;;;;;3.65;2.30;;;22.50;77.70;;;;;;5043802;28;20045;-78
2022/08/13 08:20:31;;;;;;;6.47;1.60;;;22.60;77.60;;;;;;5045541;28;20503;-78
2022/08/13 08:22:58;;;;;;;4.75;1.60;;;22.60;77.50;;;;;;5040124;28;20888;-77
2022/08/13 08:25:24;;;;;;;3.80;2.15;;;22.70;77.40;;;;;;5042238;28;20040;-78
2022/08/13 08:27:50;;;;;;;4.50;2.00;;;22.70;77.20;;;;;;5033070;28;20439;-79
2022/08/13 08:30:17;;;;;;;2.80;1.98;;;22.70;77.70;;;;;;5041726;28;20119;-78
2022/08/13 08:32:45;;;;;;;5.45;1.77;;;22.70;77.20;;;;;;5051016;28;20057;-76
2022/08/13 08:35:12;;;;;;;4.95;1.80;;;22.80;77.20;;;;;;5067466;28;20171;-76
2022/08/13 08:43:11;;;;;;;2.42;1.85;;;22.80;77.10;;;;;;5065052;28;20117;-78
2022/08/13 08:45:39;;;;;;;3.53;1.88;;;22.90;77.00;;;;;;5065193;28;20182;-80
2022/08/13 08:48:06;;;;;;;4.75;1.75;;;23.00;76.80;;;;;;5054035;28;20057;-78
2022/08/13 08:50:33;;;;;;;2.17;1.40;;;23.00;76.70;;;;;;5039560;28;20085;-79
2022/08/13 08:53:19;;;;;;;3.78;1.70;;;23.00;76.70;;;;;;5037179;28;20045;-78
2022/08/13 08:55:45;;;;;;;4.07;1.70;;;23.10;76.60;;;;;;5034647;28;20040;-79
2022/08/13 08:58:12;;;;;;;2.33;1.38;;;23.10;76.50;;;;;;5043866;28;20045;-78
2022/08/13 09:00:39;;;;;;;4.85;1.85;;;23.10;77.00;;;;;;5044883;28;20037;-79
2022/08/13 09:03:08;;;;;;;3.25;1.52;;;23.20;76.40;;;;;;5034554;28;20040;-78
2022/08/13 09:05:35;;;;;;;3.33;1.90;;;23.20;76.40;;;;;;5042995;28;20541;-78
2022/08/13 09:08:03;;;;;;;5.93;1.58;;;23.20;76.20;;;;;;5027619;28;20045;-80
2022/08/13 09:10:33;;;;;;;3.92;1.70;;;23.30;76.00;;;;;;5044009;28;20047;-78
2022/08/13 09:13:02;;;;;;;5.00;1.50;;;23.40;75.80;;;;;;5033014;28;20096;-79
2022/08/13 09:15:31;;;;;;;4.70;1.40;;;23.40;75.60;;;;;;5025965;28;20590;-78
2022/08/13 09:17:58;;;;;;;2.58;1.25;;;23.50;75.40;;;;;;5043510;28;20095;-78
2022/08/13 09:20:28;;;;;;;3.33;1.70;;;23.50;75.20;;;;;;5044227;28;20048;-78
2022/08/13 09:23:04;;;;;;;5.03;1.73;;;23.40;75.00;;;;;;5028861;28;20038;-78
2022/08/13 09:25:31;;;;;;;3.97;1.42;;;23.60;74.90;;;;;;5044842;28;20042;-80
2022/08/13 09:27:57;;;;;;;5.32;1.85;;;23.60;74.70;;;;;;5058737;28;20046;-79
2022/08/13 09:30:23;;;;;;;4.05;1.38;;;23.60;74.60;;;;;;5043403;28;20099;-77
2022/08/13 09:32:53;;;;;;;3.55;1.65;;;23.70;74.40;;;;;;5025423;28;20040;-78
2022/08/13 09:35:19;;;;;;;2.80;1.33;;;23.70;74.20;;;;;;5044894;28;20648;-76
2022/08/13 09:37:50;;;;;;;6.82;1.73;;;23.70;74.10;;;;;;5028521;28;20052;-75
2022/08/13 09:40:17;;;;;;;3.15;1.98;;;23.70;74.10;;;;;;5035175;28;20048;-76
2022/08/13 09:42:46;;;;;;;3.17;1.52;;;23.70;74.00;;;;;;5047623;28;20045;-75
2022/08/13 09:45:12;;;;;;;3.58;1.42;;;23.70;74.00;;;;;;5045725;28;20063;-76
2022/08/13 09:47:39;;;;;;;3.38;1.50;;;23.80;74.00;;;;;;5047018;28;20037;-75
2022/08/13 09:50:06;;;;;;;5.43;1.95;;;23.90;73.80;;;;;;5035161;28;20045;-76
2022/08/13 09:52:51;;;;;;;;;;;;;;;;;;;;;
2022/08/13 09:55:22;;;;;;;2.17;1.40;;;23.90;73.50;;;;;;5045142;28;39981;-76
2022/08/13 09:57:59;;;;;;;4.95;1.70;;;24.00;73.50;;;;;;5028762;28;20833;-76
2022/08/13 10:00:28;;;;;;;5.18;1.60;;;24.00;73.40;;;;;;5029042;28;20056;-75
2022/08/13 10:03:04;;;;;;;2.25;1.33;;;24.00;73.20;;;;;;5061678;28;20110;-76
2022/08/13 10:05:35;;;;;;;2.20;1.50;;;24.10;73.10;;;;;;5027047;28;20042;-75
2022/08/13 10:08:13;;;;;;;2.00;1.40;;;24.10;72.90;;;;;;5047333;28;20046;-75
2022/08/13 10:10:49;;;;;;;2.90;1.40;;;24.20;72.70;;;;;;5033823;28;20128;-75
2022/08/13 10:13:22;;;;;;;4.57;1.45;;;24.20;72.50;;;;;;5028798;28;20076;-75
2022/08/13 10:15:54;;;;;;;2.88;1.42;;;24.40;72.20;;;;;;5043308;28;20061;-76
2022/08/13 10:18:31;;;;;;;4.15;1.20;;;24.40;72.00;;;;;;5051346;28;20316;-75
2022/08/13 10:21:05;;;;;;;2.35;1.83;;;24.40;71.70;;;;;;5027808;28;20037;-76
2022/08/13 10:23:33;;;;;;;2.25;1.33;;;24.30;71.40;;;;;;5043967;28;20037;-76
2022/08/13 10:26:08;;;;;;;2.03;1.50;;;24.40;71.40;;;;;;5033799;28;20041;-75
2022/08/13 10:28:39;;;;;;;4.03;2.03;;;24.50;71.40;;;;;;5034326;28;20085;-76
2022/08/13 10:31:14;;;;;;;2.55;1.42;;;24.50;71.60;;;;;;5035024;28;20108;-75
2022/08/13 10:33:47;;;;;;;4.20;1.83;;;24.40;72.30;;;;;;5027841;28;20111;-75
2022/08/13 10:36:18;;;;;;;6.45;1.80;;;24.70;71.90;;;;;;5046019;28;20044;-75
2022/08/13 10:38:49;;;;;;;3.85;1.65;;;24.50;71.80;;;;;;5050644;28;20057;-76
2022/08/13 10:41:18;;;;;;;2.58;1.13;;;24.60;71.70;;;;;;5046152;28;20183;-75
2022/08/13 10:43:50;;;;;;;3.47;1.30;;;24.70;71.80;;;;;;5033976;28;20045;-75
2022/08/13 10:46:20;;;;;;;2.47;1.75;;;24.60;71.60;;;;;;5034765;28;20054;-75
2022/08/13 10:48:57;;;;;;;3.08;1.23;;;24.50;71.40;;;;;;5045350;28;20053;-76
2022/08/13 10:51:29;;;;;;;2.90;1.35;;;24.70;71.20;;;;;;5027292;28;20148;-75
2022/08/13 10:53:59;;;;;;;;;;;24.70;71.10;;;;;;5032987;28;20045;-80
2022/08/13 10:56:35;;;;;;;2.92;1.40;;;24.70;70.90;;;;;;5026376;28;19988;-82
2022/08/13 10:59:14;;;;;;;1.80;1.20;;;24.70;70.70;;;;;;5044049;28;20524;-80
2022/08/13 11:02:04;;;;;;;1.45;1.13;;;24.90;70.50;;;;;;5032021;28;20044;-79
2022/08/13 11:04:36;;;;;;;5.07;1.63;;;24.80;70.00;;;;;;5024924;28;20045;-77
2022/08/13 11:10:26;;;;;;;2.40;1.60;;;25.00;70.10;;;;;;4998965;28;20059;-79
2022/08/13 11:13:00;;;;;;;1.65;1.27;;;25.00;69.80;;;;;;5044356;28;20058;-79
2022/08/13 11:15:42;;;;;;;1.52;1.15;;;25.10;69.50;;;;;;5030769;28;20103;-78
2022/08/13 11:18:10;;;;;;;3.70;1.40;;;25.10;69.30;;;;;;5033165;28;20551;-76
2022/08/13 11:23:50;;;;;;;3.63;2.15;;;25.20;68.90;;;;;;5043487;28;22651;-78
2022/08/13 11:26:29;;;;;;;2.53;1.80;;;25.30;69.30;;;;;;5033204;28;20045;-79
2022/08/13 11:28:57;;;;;;;3.30;1.52;;;25.40;69.50;;;;;;5049892;28;20038;-76
2022/08/13 11:31:39;;;;;;;4.57;2.25;;;25.20;69.50;;;;;;5012045;28;20046;-76
2022/08/13 11:34:09;;;;;;;24.38;8.02;;;25.30;69.50;;;;;;5043041;28;21292;-76
2022/08/13 11:36:41;;;;;;;45.92;17.00;;;25.20;69.40;;;;;;5009092;28;20511;-77
2022/08/13 11:39:11;;;;;;;;;;;25.50;69.60;;;;;;5012381;28;20113;-77
2022/08/13 11:41:43;;;;;;;145.82;55.00;;;25.50;69.60;;;;;;5038309;28;19929;-76
2022/08/13 11:44:12;;;;;;;65.07;24.75;;;25.30;69.20;;;;;;5007599;28;20045;-77
2022/08/13 11:46:38;;;;;;;133.88;51.50;;;25.40;69.10;;;;;;5008906;28;20046;-76
2022/08/13 11:49:05;;;;;;;222.95;79.68;;;25.40;69.10;;;;;;5009251;28;20073;-77
2022/08/13 11:51:33;;;;;;;142.60;51.33;;;25.50;69.20;;;;;;5010512;28;20046;-76
2022/08/13 11:54:02;;;;;;;15.95;7.55;;;25.50;69.00;;;;;;5012030;28;20093;-77
2022/08/13 11:56:35;;;;;;;50.63;17.17;;;25.60;68.80;;;;;;5012346;28;20087;-76
2022/08/13 11:59:10;;;;;;;6.35;3.58;;;25.60;68.50;;;;;;5008305;28;21219;-77
2022/08/13 12:01:39;;;;;;;68.95;26.17;;;25.60;68.40;;;;;;5010054;28;20575;-76
2022/08/13 12:04:23;;;;;;;16.02;5.03;;;25.60;68.40;;;;;;5037713;28;20100;-77
2022/08/13 12:06:58;;;;;;;3.03;1.85;;;25.60;68.30;;;;;;5012954;28;20034;-76
2022/08/13 12:09:27;;;;;;;11.65;4.95;;;25.70;68.20;;;;;;5004569;28;20099;-78
2022/08/13 12:11:59;;;;;;;11.57;5.00;;;25.80;67.90;;;;;;5010192;28;20058;-77
2022/08/13 12:14:28;;;;;;;9.32;5.32;;;25.90;67.80;;;;;;5042686;28;20556;-76
2022/08/13 12:16:53;;;;;;;13.18;5.63;;;25.80;67.80;;;;;;5010766;28;20100;-77
2022/08/13 12:19:26;;;;;;;9.70;3.40;;;25.90;67.60;;;;;;5039880;28;20113;-76
2022/08/13 12:21:55;;;;;;;8.38;2.95;;;26.00;67.60;;;;;;5013721;28;20041;-76
2022/08/13 12:24:21;;;;;;;6.28;2.00;;;25.90;67.50;;;;;;5007910;28;20046;-76
2022/08/13 12:26:58;;;;;;;3.85;1.60;;;25.90;67.50;;;;;;5012390;28;20165;-76
2022/08/13 12:29:33;;;;;;;3.03;1.80;;;26.00;67.40;;;;;;5023677;28;20057;-76
2022/08/13 12:32:05;;;;;;;3.08;1.92;;;26.00;67.10;;;;;;5028728;28;20068;-76
2022/08/13 12:34:30;;;;;;;5.10;2.50;;;26.10;66.50;;;;;;5030002;28;20471;-77
2022/08/13 12:37:14;;;;;;;4.80;1.77;;;26.10;66.60;;;;;;5028297;28;20046;-80
2022/08/13 12:39:46;;;;;;;2.83;1.73;;;26.10;66.60;;;;;;5043160;28;20037;-77
2022/08/13 12:42:27;;;;;;;3.30;1.42;;;26.20;66.60;;;;;;5025842;28;20503;-78
2022/08/13 12:45:13;;;;;;;;;;;;;;;;;;;;;
2022/08/13 12:48:00;;;;;;;;;;;;;;;;;;;;;
2022/08/13 12:50:31;;;;;;;1.85;1.58;;;26.20;66.00;;;;;;5028680;28;39334;-74
2022/08/13 12:53:00;;;;;;;4.10;2.10;;;26.30;65.60;;;;;;5045218;28;20579;-74
2022/08/13 12:55:34;;;;;;;1.42;1.00;;;26.30;65.60;;;;;;5049602;28;20387;-74
2022/08/13 12:58:24;;;;;;;2.97;1.73;;;26.30;65.70;;;;;;5018367;28;20044;-74
2022/08/13 13:01:00;;;;;;;3.00;1.40;;;26.30;65.60;;;;;;5025167;28;20686;-74
2022/08/13 13:03:36;;;;;;;4.95;1.67;;;26.30;65.70;;;;;;5027654;28;20416;-75
2022/08/13 13:06:08;;;;;;;3.58;1.48;;;26.40;65.70;;;;;;5033336;28;20604;-75
2022/08/13 13:09:06;;;;;;;2.15;1.20;;;26.30;65.70;;;;;;5059428;28;20033;-75
2022/08/13 13:11:43;;;;;;;4.93;1.60;;;26.40;65.40;;;;;;5027614;28;20125;-75
2022/08/13 13:14:15;;;;;;;2.03;1.30;;;26.50;65.50;;;;;;5027872;28;20148;-75
2022/08/13 13:16:52;;;;;;;1.77;1.00;;;26.60;65.50;;;;;;5027758;28;20034;-74
2022/08/13 13:19:23;;;;;;;2.13;1.20;;;26.80;65.50;;;;;;5034822;28;20060;-74
2022/08/13 13:22:18;;;;;;;;;;;26.80;65.20;;;;;;5029720;28;20049;-74
2022/08/13 13:24:46;;;;;;;2.08;1.55;;;26.70;64.70;;;;;;5025623;28;20012;-74
2022/08/13 13:27:44;;;;;;;2.55;1.60;;;26.80;64.60;;;;;;5027941;28;20046;-75
2022/08/13 13:30:27;;;;;;;2.40;1.10;;;26.70;64.40;;;;;;5013009;28;20056;-75
2022/08/13 13:32:58;;;;;;;2.30;1.30;;;26.70;64.60;;;;;;5014271;28;20038;-74
2022/08/13 13:35:34;;;;;;;2.03;1.23;;;26.80;64.60;;;;;;5047341;28;20038;-73
2022/08/13 13:38:11;;;;;;;2.00;1.02;;;26.60;64.60;;;;;;5014179;28;20989;-74
2022/08/13 13:40:46;;;;;;;5.32;1.33;;;26.80;64.90;;;;;;5035291;28;20890;-75
2022/08/13 13:43:25;;;;;;;3.35;1.40;;;26.90;64.40;;;;;;5039742;28;20050;-75
2022/08/13 13:46:02;;;;;;;1.50;1.30;;;26.90;64.30;;;;;;5051950;28;20888;-75
2022/08/13 13:48:58;;;;;;;2.40;1.38;;;26.60;64.20;;;;;;5044076;28;20076;-74
2022/08/13 13:51:37;;;;;;;3.00;1.60;;;26.90;64.30;;;;;;5010870;28;20049;-74
2022/08/13 13:54:17;;;;;;;3.55;1.70;;;26.90;64.70;;;;;;5013606;28;20141;-74
2022/08/13 13:57:06;;;;;;;1.55;1.08;;;26.70;64.60;;;;;;5026724;28;20057;-74
2022/08/13 13:59:56;;;;;;;3.65;1.00;;;26.90;64.70;;;;;;5009340;28;20566;-74
2022/08/13 14:03:05;;;;;;;;;;;;;;;;;;;;;
2022/08/13 14:05:53;;;;;;;2.38;1.13;;;27.30;64.50;;;;;;5008875;28;39180;-73
2022/08/13 14:08:29;;;;;;;2.85;1.40;;;27.10;64.10;;;;;;5013315;28;20062;-74
2022/08/13 14:11:13;;;;;;;2.72;1.23;;;27.10;64.10;;;;;;5011083;28;20072;-73